San Francisco, California
Traffic Map
Current Weather Conditions
San Francisco, California
Few Clouds
Few Clouds
53°
Feels Like: 53°
Wind Chill: 53° Ceiling: Unl
Heat Index: 53° Visibility: 10mi
Dew Point: 33° Wind: 10mph
Humidity: 47% Direction: 260° (W)
Pressure: 29.96in Gusts: 20mph
Raw Report DataKSFO 161456Z 26009G17KT 10SM FEW200 12/01 A2996 RMK AO2 SLP145 T01170006 55005
Traffic Incident Summary
Active as of:
Severity:
Category:
InformationThere was an issue retrieving the traffic information for this location. Please try a different location or try again shortly.
Advertisements